sensor_id;sensor_type;location;lat;lon;timestamp;P1;durP1;ratioP1;P2;durP2;ratioP2
13743;SDS011;6943;52.368;9.966;2023-01-25T00:02:13;17.27;;;11.73;;
13743;SDS011;6943;52.368;9.966;2023-01-25T00:04:38;15.80;;;12.07;;
13743;SDS011;6943;52.368;9.966;2023-01-25T00:07:03;12.33;;;9.57;;
13743;SDS011;6943;52.368;9.966;2023-01-25T00:09:29;14.90;;;11.30;;
13743;SDS011;6943;52.368;9.966;2023-01-25T00:11:54;14.57;;;10.53;;
13743;SDS011;6943;52.368;9.966;2023-01-25T00:14:22;16.10;;;11.90;;
13743;SDS011;6943;52.368;9.966;2023-01-25T00:16:47;14.77;;;11.67;;
13743;SDS011;6943;52.368;9.966;2023-01-25T00:19:13;19.50;;;13.00;;
13743;SDS011;6943;52.368;9.966;2023-01-25T00:21:38;16.93;;;12.27;;
13743;SDS011;6943;52.368;9.966;2023-01-25T00:24:04;15.40;;;11.60;;
13743;SDS011;6943;52.368;9.966;2023-01-25T00:26:30;14.87;;;11.17;;
13743;SDS011;6943;52.368;9.966;2023-01-25T00:28:57;14.67;;;10.70;;
13743;SDS011;6943;52.368;9.966;2023-01-25T00:37:00;13.97;;;10.27;;
13743;SDS011;6943;52.368;9.966;2023-01-25T00:39:34;15.33;;;11.40;;
13743;SDS011;6943;52.368;9.966;2023-01-25T00:42:00;15.30;;;11.30;;
13743;SDS011;6943;52.368;9.966;2023-01-25T00:44:26;19.17;;;12.77;;
13743;SDS011;6943;52.368;9.966;2023-01-25T00:46:51;18.77;;;12.93;;
13743;SDS011;6943;52.368;9.966;2023-01-25T00:49:18;15.10;;;11.37;;
13743;SDS011;6943;52.368;9.966;2023-01-25T00:51:46;15.70;;;10.67;;
13743;SDS011;6943;52.368;9.966;2023-01-25T00:54:12;15.13;;;11.37;;
13743;SDS011;6943;52.368;9.966;2023-01-25T00:56:37;15.67;;;11.40;;
13743;SDS011;6943;52.368;9.966;2023-01-25T00:59:03;16.10;;;11.47;;
13743;SDS011;6943;52.368;9.966;2023-01-25T01:01:28;15.73;;;11.67;;
13743;SDS011;6943;52.368;9.966;2023-01-25T01:03:54;16.07;;;11.93;;
13743;SDS011;6943;52.368;9.966;2023-01-25T01:06:19;15.60;;;12.00;;
13743;SDS011;6943;52.368;9.966;2023-01-25T01:08:45;17.90;;;12.30;;
13743;SDS011;6943;52.368;9.966;2023-01-25T01:11:11;18.33;;;13.10;;
13743;SDS011;6943;52.368;9.966;2023-01-25T01:13:37;18.30;;;12.70;;
13743;SDS011;6943;52.368;9.966;2023-01-25T01:16:04;17.50;;;12.70;;
13743;SDS011;6943;52.368;9.966;2023-01-25T01:18:35;19.77;;;12.90;;
13743;SDS011;6943;52.368;9.966;2023-01-25T01:21:08;17.43;;;12.57;;
13743;SDS011;6943;52.368;9.966;2023-01-25T01:23:34;16.17;;;12.40;;
13743;SDS011;6943;52.368;9.966;2023-01-25T01:26:01;19.83;;;13.83;;
13743;SDS011;6943;52.368;9.966;2023-01-25T01:28:28;17.43;;;13.67;;
13743;SDS011;6943;52.368;9.966;2023-01-25T01:30:58;16.57;;;12.63;;
13743;SDS011;6943;52.368;9.966;2023-01-25T01:33:25;15.43;;;12.20;;
13743;SDS011;6943;52.368;9.966;2023-01-25T01:35:50;17.40;;;12.97;;
13743;SDS011;6943;52.368;9.966;2023-01-25T01:38:16;18.17;;;12.60;;
13743;SDS011;6943;52.368;9.966;2023-01-25T01:40:44;16.73;;;12.67;;
13743;SDS011;6943;52.368;9.966;2023-01-25T01:43:18;16.80;;;12.00;;
13743;SDS011;6943;52.368;9.966;2023-01-25T01:45:56;16.70;;;12.73;;
13743;SDS011;6943;52.368;9.966;2023-01-25T01:48:37;15.03;;;11.87;;
13743;SDS011;6943;52.368;9.966;2023-01-25T01:54:04;41.93;;;25.83;;
13743;SDS011;6943;52.368;9.966;2023-01-25T01:56:44;20.47;;;14.37;;
13743;SDS011;6943;52.368;9.966;2023-01-25T01:59:15;18.70;;;14.13;;
13743;SDS011;6943;52.368;9.966;2023-01-25T02:01:42;17.33;;;12.90;;
13743;SDS011;6943;52.368;9.966;2023-01-25T02:04:08;19.90;;;13.23;;
13743;SDS011;6943;52.368;9.966;2023-01-25T02:06:42;19.30;;;13.70;;
13743;SDS011;6943;52.368;9.966;2023-01-25T02:09:13;20.83;;;14.10;;
13743;SDS011;6943;52.368;9.966;2023-01-25T02:11:41;20.57;;;14.30;;
13743;SDS011;6943;52.368;9.966;2023-01-25T02:14:07;20.17;;;14.27;;
13743;SDS011;6943;52.368;9.966;2023-01-25T02:16:33;19.67;;;14.43;;
13743;SDS011;6943;52.368;9.966;2023-01-25T02:18:59;20.50;;;14.53;;
13743;SDS011;6943;52.368;9.966;2023-01-25T02:21:29;21.70;;;15.53;;
13743;SDS011;6943;52.368;9.966;2023-01-25T02:24:00;24.23;;;15.27;;
13743;SDS011;6943;52.368;9.966;2023-01-25T02:26:35;22.50;;;15.90;;
13743;SDS011;6943;52.368;9.966;2023-01-25T02:29:02;22.63;;;15.53;;
13743;SDS011;6943;52.368;9.966;2023-01-25T02:31:32;22.13;;;15.53;;
13743;SDS011;6943;52.368;9.966;2023-01-25T02:33:58;26.70;;;17.37;;
13743;SDS011;6943;52.368;9.966;2023-01-25T02:36:28;22.63;;;14.83;;
13743;SDS011;6943;52.368;9.966;2023-01-25T02:38:59;23.73;;;15.00;;
13743;SDS011;6943;52.368;9.966;2023-01-25T02:41:29;19.93;;;13.80;;
13743;SDS011;6943;52.368;9.966;2023-01-25T02:43:59;16.77;;;11.57;;
13743;SDS011;6943;52.368;9.966;2023-01-25T02:46:29;18.03;;;12.10;;
13743;SDS011;6943;52.368;9.966;2023-01-25T02:48:59;18.20;;;12.27;;
13743;SDS011;6943;52.368;9.966;2023-01-25T02:51:26;14.80;;;11.17;;
13743;SDS011;6943;52.368;9.966;2023-01-25T02:53:53;18.00;;;11.40;;
13743;SDS011;6943;52.368;9.966;2023-01-25T02:56:19;13.80;;;11.07;;
13743;SDS011;6943;52.368;9.966;2023-01-25T02:58:45;15.90;;;10.73;;
13743;SDS011;6943;52.368;9.966;2023-01-25T03:01:11;15.27;;;10.47;;
13743;SDS011;6943;52.368;9.966;2023-01-25T03:03:37;14.20;;;9.73;;
13743;SDS011;6943;52.368;9.966;2023-01-25T03:06:03;14.73;;;10.13;;
13743;SDS011;6943;52.368;9.966;2023-01-25T03:08:30;16.43;;;10.57;;
13743;SDS011;6943;52.368;9.966;2023-01-25T03:10:56;14.10;;;9.87;;
13743;SDS011;6943;52.368;9.966;2023-01-25T03:13:23;14.80;;;10.30;;
13743;SDS011;6943;52.368;9.966;2023-01-25T03:15:49;16.07;;;11.07;;
13743;SDS011;6943;52.368;9.966;2023-01-25T03:18:15;14.10;;;10.80;;
13743;SDS011;6943;52.368;9.966;2023-01-25T03:20:40;13.80;;;10.10;;
13743;SDS011;6943;52.368;9.966;2023-01-25T03:23:06;14.70;;;10.47;;
13743;SDS011;6943;52.368;9.966;2023-01-25T03:25:31;14.73;;;9.97;;
13743;SDS011;6943;52.368;9.966;2023-01-25T03:27:57;13.37;;;10.17;;
13743;SDS011;6943;52.368;9.966;2023-01-25T03:30:22;14.67;;;10.07;;
13743;SDS011;6943;52.368;9.966;2023-01-25T03:32:48;15.20;;;10.10;;
13743;SDS011;6943;52.368;9.966;2023-01-25T03:35:14;14.87;;;10.43;;
13743;SDS011;6943;52.368;9.966;2023-01-25T03:37:40;13.03;;;10.93;;
13743;SDS011;6943;52.368;9.966;2023-01-25T03:40:05;17.10;;;10.97;;
13743;SDS011;6943;52.368;9.966;2023-01-25T03:42:31;18.07;;;11.37;;
13743;SDS011;6943;52.368;9.966;2023-01-25T03:44:57;14.77;;;11.07;;
13743;SDS011;6943;52.368;9.966;2023-01-25T03:47:22;13.70;;;10.40;;
13743;SDS011;6943;52.368;9.966;2023-01-25T03:49:48;16.13;;;11.10;;
13743;SDS011;6943;52.368;9.966;2023-01-25T03:52:13;14.83;;;10.00;;
13743;SDS011;6943;52.368;9.966;2023-01-25T03:54:39;14.73;;;10.43;;
13743;SDS011;6943;52.368;9.966;2023-01-25T03:57:05;12.33;;;9.23;;
13743;SDS011;6943;52.368;9.966;2023-01-25T03:59:31;16.13;;;10.70;;
13743;SDS011;6943;52.368;9.966;2023-01-25T04:01:56;15.67;;;10.43;;
13743;SDS011;6943;52.368;9.966;2023-01-25T04:04:22;16.57;;;10.73;;
13743;SDS011;6943;52.368;9.966;2023-01-25T04:06:47;14.13;;;10.83;;
13743;SDS011;6943;52.368;9.966;2023-01-25T04:09:13;15.63;;;10.03;;
13743;SDS011;6943;52.368;9.966;2023-01-25T04:11:39;16.10;;;10.27;;
13743;SDS011;6943;52.368;9.966;2023-01-25T04:14:05;14.37;;;9.87;;
13743;SDS011;6943;52.368;9.966;2023-01-25T04:16:31;15.60;;;10.80;;
13743;SDS011;6943;52.368;9.966;2023-01-25T04:18:56;17.77;;;10.27;;
13743;SDS011;6943;52.368;9.966;2023-01-25T04:21:22;13.87;;;9.60;;
13743;SDS011;6943;52.368;9.966;2023-01-25T04:23:47;17.10;;;10.33;;
13743;SDS011;6943;52.368;9.966;2023-01-25T04:26:13;15.97;;;10.00;;
13743;SDS011;6943;52.368;9.966;2023-01-25T04:28:39;17.20;;;10.87;;
13743;SDS011;6943;52.368;9.966;2023-01-25T04:31:04;16.30;;;10.87;;
13743;SDS011;6943;52.368;9.966;2023-01-25T04:33:31;14.37;;;10.07;;
13743;SDS011;6943;52.368;9.966;2023-01-25T04:35:57;15.27;;;9.57;;
13743;SDS011;6943;52.368;9.966;2023-01-25T04:38:23;15.07;;;10.03;;
13743;SDS011;6943;52.368;9.966;2023-01-25T04:40:50;14.33;;;10.10;;
13743;SDS011;6943;52.368;9.966;2023-01-25T04:43:16;16.23;;;10.00;;
13743;SDS011;6943;52.368;9.966;2023-01-25T04:45:43;16.10;;;10.23;;
13743;SDS011;6943;52.368;9.966;2023-01-25T04:48:10;13.53;;;10.30;;
13743;SDS011;6943;52.368;9.966;2023-01-25T04:50:37;15.53;;;10.23;;
13743;SDS011;6943;52.368;9.966;2023-01-25T04:53:04;17.57;;;11.13;;
13743;SDS011;6943;52.368;9.966;2023-01-25T04:55:31;15.43;;;10.10;;
13743;SDS011;6943;52.368;9.966;2023-01-25T04:57:58;14.63;;;9.93;;
13743;SDS011;6943;52.368;9.966;2023-01-25T05:00:24;14.83;;;9.17;;
13743;SDS011;6943;52.368;9.966;2023-01-25T05:02:49;12.70;;;8.93;;
13743;SDS011;6943;52.368;9.966;2023-01-25T05:05:15;13.70;;;9.13;;
13743;SDS011;6943;52.368;9.966;2023-01-25T05:07:40;12.77;;;8.93;;
13743;SDS011;6943;52.368;9.966;2023-01-25T05:10:06;11.03;;;7.80;;
13743;SDS011;6943;52.368;9.966;2023-01-25T05:12:33;11.47;;;8.20;;
13743;SDS011;6943;52.368;9.966;2023-01-25T05:14:58;9.53;;;6.80;;
13743;SDS011;6943;52.368;9.966;2023-01-25T05:17:24;9.83;;;7.53;;
13743;SDS011;6943;52.368;9.966;2023-01-25T05:19:49;10.23;;;7.20;;
13743;SDS011;6943;52.368;9.966;2023-01-25T05:22:15;9.40;;;6.67;;
13743;SDS011;6943;52.368;9.966;2023-01-25T05:24:42;10.63;;;7.33;;
13743;SDS011;6943;52.368;9.966;2023-01-25T05:27:10;11.30;;;6.80;;
13743;SDS011;6943;52.368;9.966;2023-01-25T05:29:40;8.93;;;5.77;;
13743;SDS011;6943;52.368;9.966;2023-01-25T05:32:08;8.93;;;6.60;;
13743;SDS011;6943;52.368;9.966;2023-01-25T05:34:36;9.27;;;6.03;;
13743;SDS011;6943;52.368;9.966;2023-01-25T05:37:02;10.40;;;6.47;;
13743;SDS011;6943;52.368;9.966;2023-01-25T05:39:29;8.77;;;5.90;;
13743;SDS011;6943;52.368;9.966;2023-01-25T05:41:54;8.90;;;6.13;;
13743;SDS011;6943;52.368;9.966;2023-01-25T05:44:20;8.97;;;5.80;;
13743;SDS011;6943;52.368;9.966;2023-01-25T05:46:46;9.93;;;6.50;;
13743;SDS011;6943;52.368;9.966;2023-01-25T05:49:12;8.73;;;6.07;;
13743;SDS011;6943;52.368;9.966;2023-01-25T05:51:38;8.53;;;5.60;;
13743;SDS011;6943;52.368;9.966;2023-01-25T05:54:04;7.20;;;5.10;;
13743;SDS011;6943;52.368;9.966;2023-01-25T05:56:31;9.47;;;5.40;;
13743;SDS011;6943;52.368;9.966;2023-01-25T05:58:57;10.40;;;6.07;;
13743;SDS011;6943;52.368;9.966;2023-01-25T06:01:23;9.03;;;5.87;;
13743;SDS011;6943;52.368;9.966;2023-01-25T06:03:50;11.33;;;6.50;;
13743;SDS011;6943;52.368;9.966;2023-01-25T06:06:16;9.80;;;6.57;;
13743;SDS011;6943;52.368;9.966;2023-01-25T06:08:42;7.97;;;5.77;;
13743;SDS011;6943;52.368;9.966;2023-01-25T06:11:09;8.97;;;6.17;;
13743;SDS011;6943;52.368;9.966;2023-01-25T06:13:36;10.60;;;6.37;;
13743;SDS011;6943;52.368;9.966;2023-01-25T06:16:02;10.70;;;6.80;;
13743;SDS011;6943;52.368;9.966;2023-01-25T06:18:29;10.40;;;6.60;;
13743;SDS011;6943;52.368;9.966;2023-01-25T06:20:56;11.60;;;6.90;;
13743;SDS011;6943;52.368;9.966;2023-01-25T06:23:22;9.53;;;6.97;;
13743;SDS011;6943;52.368;9.966;2023-01-25T06:25:48;9.77;;;6.90;;
13743;SDS011;6943;52.368;9.966;2023-01-25T06:28:13;9.80;;;7.00;;
13743;SDS011;6943;52.368;9.966;2023-01-25T06:30:39;10.10;;;7.27;;
13743;SDS011;6943;52.368;9.966;2023-01-25T06:33:04;10.77;;;7.80;;
13743;SDS011;6943;52.368;9.966;2023-01-25T06:35:30;10.87;;;6.97;;
13743;SDS011;6943;52.368;9.966;2023-01-25T06:37:57;10.47;;;6.70;;
13743;SDS011;6943;52.368;9.966;2023-01-25T06:40:24;11.27;;;6.93;;
13743;SDS011;6943;52.368;9.966;2023-01-25T06:42:50;9.90;;;7.17;;
13743;SDS011;6943;52.368;9.966;2023-01-25T06:45:15;12.20;;;7.27;;
13743;SDS011;6943;52.368;9.966;2023-01-25T06:47:41;12.17;;;7.47;;
13743;SDS011;6943;52.368;9.966;2023-01-25T06:50:07;11.17;;;7.37;;
13743;SDS011;6943;52.368;9.966;2023-01-25T06:52:33;14.40;;;8.87;;
13743;SDS011;6943;52.368;9.966;2023-01-25T06:55:01;13.80;;;8.93;;
13743;SDS011;6943;52.368;9.966;2023-01-25T06:57:31;13.73;;;8.27;;
13743;SDS011;6943;52.368;9.966;2023-01-25T06:59:57;11.73;;;7.97;;
13743;SDS011;6943;52.368;9.966;2023-01-25T07:02:23;12.97;;;9.00;;
13743;SDS011;6943;52.368;9.966;2023-01-25T07:04:48;12.80;;;7.97;;
13743;SDS011;6943;52.368;9.966;2023-01-25T07:07:15;14.20;;;8.37;;
13743;SDS011;6943;52.368;9.966;2023-01-25T07:09:40;12.97;;;8.73;;
13743;SDS011;6943;52.368;9.966;2023-01-25T07:12:06;13.67;;;8.60;;
13743;SDS011;6943;52.368;9.966;2023-01-25T07:14:31;16.60;;;9.53;;
13743;SDS011;6943;52.368;9.966;2023-01-25T07:16:57;12.87;;;9.50;;
13743;SDS011;6943;52.368;9.966;2023-01-25T07:19:23;12.63;;;8.23;;
13743;SDS011;6943;52.368;9.966;2023-01-25T07:21:48;13.60;;;8.17;;
13743;SDS011;6943;52.368;9.966;2023-01-25T07:24:15;16.93;;;9.60;;
13743;SDS011;6943;52.368;9.966;2023-01-25T07:26:41;16.80;;;10.37;;
13743;SDS011;6943;52.368;9.966;2023-01-25T07:29:08;17.30;;;9.80;;
13743;SDS011;6943;52.368;9.966;2023-01-25T07:31:36;19.97;;;16.00;;
13743;SDS011;6943;52.368;9.966;2023-01-25T07:34:02;18.03;;;11.50;;
13743;SDS011;6943;52.368;9.966;2023-01-25T07:36:28;18.63;;;12.37;;
13743;SDS011;6943;52.368;9.966;2023-01-25T07:38:54;19.97;;;12.60;;
13743;SDS011;6943;52.368;9.966;2023-01-25T07:41:21;14.63;;;9.60;;
13743;SDS011;6943;52.368;9.966;2023-01-25T07:43:47;15.30;;;10.60;;
13743;SDS011;6943;52.368;9.966;2023-01-25T07:46:13;20.10;;;11.10;;
13743;SDS011;6943;52.368;9.966;2023-01-25T07:48:40;17.87;;;10.07;;
13743;SDS011;6943;52.368;9.966;2023-01-25T07:51:10;17.20;;;11.07;;
13743;SDS011;6943;52.368;9.966;2023-01-25T07:53:40;17.90;;;12.43;;
13743;SDS011;6943;52.368;9.966;2023-01-25T07:56:07;16.00;;;10.83;;
13743;SDS011;6943;52.368;9.966;2023-01-25T07:58:34;15.40;;;10.63;;
13743;SDS011;6943;52.368;9.966;2023-01-25T08:01:09;15.53;;;10.30;;
13743;SDS011;6943;52.368;9.966;2023-01-25T08:03:36;16.17;;;10.77;;
13743;SDS011;6943;52.368;9.966;2023-01-25T08:06:02;15.97;;;10.73;;
13743;SDS011;6943;52.368;9.966;2023-01-25T08:08:29;20.10;;;12.13;;
13743;SDS011;6943;52.368;9.966;2023-01-25T08:10:58;15.37;;;10.90;;
13743;SDS011;6943;52.368;9.966;2023-01-25T08:13:25;13.07;;;9.70;;
13743;SDS011;6943;52.368;9.966;2023-01-25T08:15:54;17.13;;;10.50;;
13743;SDS011;6943;52.368;9.966;2023-01-25T08:18:19;13.93;;;10.40;;
13743;SDS011;6943;52.368;9.966;2023-01-25T08:20:45;14.80;;;9.30;;
13743;SDS011;6943;52.368;9.966;2023-01-25T08:23:10;13.70;;;10.13;;
13743;SDS011;6943;52.368;9.966;2023-01-25T08:25:36;12.67;;;9.03;;
13743;SDS011;6943;52.368;9.966;2023-01-25T08:28:03;18.53;;;10.33;;
13743;SDS011;6943;52.368;9.966;2023-01-25T08:30:29;20.60;;;12.47;;
13743;SDS011;6943;52.368;9.966;2023-01-25T08:32:54;16.37;;;10.60;;
13743;SDS011;6943;52.368;9.966;2023-01-25T08:35:20;13.30;;;10.00;;
13743;SDS011;6943;52.368;9.966;2023-01-25T08:37:45;18.17;;;11.87;;
13743;SDS011;6943;52.368;9.966;2023-01-25T08:40:11;16.07;;;10.90;;
13743;SDS011;6943;52.368;9.966;2023-01-25T08:42:38;16.80;;;11.30;;
13743;SDS011;6943;52.368;9.966;2023-01-25T08:45:04;16.27;;;10.93;;
13743;SDS011;6943;52.368;9.966;2023-01-25T08:47:29;14.10;;;9.33;;
13743;SDS011;6943;52.368;9.966;2023-01-25T08:49:55;15.97;;;9.97;;
13743;SDS011;6943;52.368;9.966;2023-01-25T08:52:20;15.47;;;10.23;;
13743;SDS011;6943;52.368;9.966;2023-01-25T08:54:46;17.47;;;11.53;;
13743;SDS011;6943;52.368;9.966;2023-01-25T08:57:11;22.20;;;12.30;;
13743;SDS011;6943;52.368;9.966;2023-01-25T08:59:37;16.23;;;10.30;;
13743;SDS011;6943;52.368;9.966;2023-01-25T09:02:03;15.70;;;10.60;;
13743;SDS011;6943;52.368;9.966;2023-01-25T09:04:28;13.53;;;10.43;;
13743;SDS011;6943;52.368;9.966;2023-01-25T09:06:54;14.37;;;10.27;;
13743;SDS011;6943;52.368;9.966;2023-01-25T09:09:20;17.20;;;10.23;;
13743;SDS011;6943;52.368;9.966;2023-01-25T09:11:48;17.00;;;11.23;;
13743;SDS011;6943;52.368;9.966;2023-01-25T09:14:14;19.93;;;11.87;;
13743;SDS011;6943;52.368;9.966;2023-01-25T09:16:40;21.03;;;12.43;;
13743;SDS011;6943;52.368;9.966;2023-01-25T09:19:05;18.20;;;11.53;;
13743;SDS011;6943;52.368;9.966;2023-01-25T09:21:31;18.87;;;12.83;;
13743;SDS011;6943;52.368;9.966;2023-01-25T09:23:58;17.23;;;11.67;;
13743;SDS011;6943;52.368;9.966;2023-01-25T09:26:24;19.17;;;13.07;;
13743;SDS011;6943;52.368;9.966;2023-01-25T09:28:50;20.77;;;12.33;;
13743;SDS011;6943;52.368;9.966;2023-01-25T09:31:18;20.13;;;12.90;;
13743;SDS011;6943;52.368;9.966;2023-01-25T09:33:44;20.10;;;11.83;;
13743;SDS011;6943;52.368;9.966;2023-01-25T09:36:11;20.47;;;12.47;;
13743;SDS011;6943;52.368;9.966;2023-01-25T09:38:37;21.57;;;13.23;;
13743;SDS011;6943;52.368;9.966;2023-01-25T09:41:09;18.27;;;12.10;;
13743;SDS011;6943;52.368;9.966;2023-01-25T09:44:11;21.13;;;12.80;;
13743;SDS011;6943;52.368;9.966;2023-01-25T09:47:00;20.57;;;12.53;;
13743;SDS011;6943;52.368;9.966;2023-01-25T09:50:10;20.20;;;12.87;;
13743;SDS011;6943;52.368;9.966;2023-01-25T09:55:57;17.43;;;12.43;;
13743;SDS011;6943;52.368;9.966;2023-01-25T09:58:33;18.40;;;13.00;;
13743;SDS011;6943;52.368;9.966;2023-01-25T10:01:20;17.40;;;11.73;;
13743;SDS011;6943;52.368;9.966;2023-01-25T10:03:49;16.93;;;11.47;;
13743;SDS011;6943;52.368;9.966;2023-01-25T10:06:19;15.60;;;10.53;;
13743;SDS011;6943;52.368;9.966;2023-01-25T10:08:52;16.13;;;10.83;;
13743;SDS011;6943;52.368;9.966;2023-01-25T10:11:40;16.17;;;10.27;;
13743;SDS011;6943;52.368;9.966;2023-01-25T10:14:10;15.33;;;9.57;;
13743;SDS011;6943;52.368;9.966;2023-01-25T10:19:15;15.50;;;10.87;;
13743;SDS011;6943;52.368;9.966;2023-01-25T10:21:53;15.87;;;10.90;;
13743;SDS011;6943;52.368;9.966;2023-01-25T10:27:16;14.77;;;9.73;;
13743;SDS011;6943;52.368;9.966;2023-01-25T10:29:55;14.93;;;11.30;;
13743;SDS011;6943;52.368;9.966;2023-01-25T10:32:24;14.70;;;10.80;;
13743;SDS011;6943;52.368;9.966;2023-01-25T10:34:53;16.40;;;10.87;;
13743;SDS011;6943;52.368;9.966;2023-01-25T10:37:22;16.73;;;10.90;;
13743;SDS011;6943;52.368;9.966;2023-01-25T10:39:52;16.87;;;10.60;;
13743;SDS011;6943;52.368;9.966;2023-01-25T10:42:32;18.97;;;11.47;;
13743;SDS011;6943;52.368;9.966;2023-01-25T10:45:09;19.00;;;11.97;;
13743;SDS011;6943;52.368;9.966;2023-01-25T10:47:36;18.23;;;11.53;;
13743;SDS011;6943;52.368;9.966;2023-01-25T10:50:06;16.77;;;11.27;;
13743;SDS011;6943;52.368;9.966;2023-01-25T10:52:32;16.47;;;11.27;;
13743;SDS011;6943;52.368;9.966;2023-01-25T10:57:31;13.60;;;9.90;;
13743;SDS011;6943;52.368;9.966;2023-01-25T10:59:59;15.17;;;10.47;;
13743;SDS011;6943;52.368;9.966;2023-01-25T11:02:35;14.97;;;9.90;;
13743;SDS011;6943;52.368;9.966;2023-01-25T11:05:23;13.80;;;9.23;;
13743;SDS011;6943;52.368;9.966;2023-01-25T11:07:52;16.17;;;11.03;;
13743;SDS011;6943;52.368;9.966;2023-01-25T11:18:11;17.60;;;10.73;;
13743;SDS011;6943;52.368;9.966;2023-01-25T11:20:41;17.87;;;11.27;;
13743;SDS011;6943;52.368;9.966;2023-01-25T11:23:20;15.70;;;9.83;;
13743;SDS011;6943;52.368;9.966;2023-01-25T11:25:48;18.87;;;11.63;;
13743;SDS011;6943;52.368;9.966;2023-01-25T11:28:15;16.70;;;10.00;;
13743;SDS011;6943;52.368;9.966;2023-01-25T11:30:43;16.77;;;11.57;;
13743;SDS011;6943;52.368;9.966;2023-01-25T11:33:10;16.13;;;11.10;;
13743;SDS011;6943;52.368;9.966;2023-01-25T11:35:40;18.30;;;11.30;;
13743;SDS011;6943;52.368;9.966;2023-01-25T11:38:27;17.70;;;11.03;;
13743;SDS011;6943;52.368;9.966;2023-01-25T11:40:59;14.83;;;10.50;;
13743;SDS011;6943;52.368;9.966;2023-01-25T12:00:19;17.03;;;10.03;;
13743;SDS011;6943;52.368;9.966;2023-01-25T12:05:52;15.50;;;10.10;;
13743;SDS011;6943;52.368;9.966;2023-01-25T12:08:29;16.73;;;11.07;;
13743;SDS011;6943;52.368;9.966;2023-01-25T12:14:04;15.63;;;9.63;;
13743;SDS011;6943;52.368;9.966;2023-01-25T12:16:40;16.77;;;11.37;;
13743;SDS011;6943;52.368;9.966;2023-01-25T12:19:33;20.13;;;11.70;;
13743;SDS011;6943;52.368;9.966;2023-01-25T12:25:15;17.70;;;11.57;;
13743;SDS011;6943;52.368;9.966;2023-01-25T12:33:12;15.63;;;10.40;;
13743;SDS011;6943;52.368;9.966;2023-01-25T12:36:10;15.33;;;10.50;;
13743;SDS011;6943;52.368;9.966;2023-01-25T12:39:01;13.33;;;9.50;;
13743;SDS011;6943;52.368;9.966;2023-01-25T12:41:30;14.87;;;9.87;;
13743;SDS011;6943;52.368;9.966;2023-01-25T12:44:10;16.03;;;10.70;;
13743;SDS011;6943;52.368;9.966;2023-01-25T12:49:37;14.30;;;9.70;;
13743;SDS011;6943;52.368;9.966;2023-01-25T12:52:14;15.73;;;10.23;;
13743;SDS011;6943;52.368;9.966;2023-01-25T12:54:51;17.90;;;11.53;;
13743;SDS011;6943;52.368;9.966;2023-01-25T12:57:34;15.33;;;11.33;;
13743;SDS011;6943;52.368;9.966;2023-01-25T13:08:03;17.97;;;11.50;;
13743;SDS011;6943;52.368;9.966;2023-01-25T13:10:44;18.43;;;11.33;;
13743;SDS011;6943;52.368;9.966;2023-01-25T13:13:19;16.70;;;11.00;;
13743;SDS011;6943;52.368;9.966;2023-01-25T13:15:50;17.47;;;11.00;;
13743;SDS011;6943;52.368;9.966;2023-01-25T13:21:02;17.70;;;10.73;;
13743;SDS011;6943;52.368;9.966;2023-01-25T13:23:33;17.90;;;11.40;;
13743;SDS011;6943;52.368;9.966;2023-01-25T13:28:45;19.60;;;12.03;;
13743;SDS011;6943;52.368;9.966;2023-01-25T13:34:09;16.73;;;11.23;;
13743;SDS011;6943;52.368;9.966;2023-01-25T13:36:36;18.23;;;11.73;;
13743;SDS011;6943;52.368;9.966;2023-01-25T13:44:29;16.87;;;10.93;;
13743;SDS011;6943;52.368;9.966;2023-01-25T13:46:57;14.20;;;9.10;;
13743;SDS011;6943;52.368;9.966;2023-01-25T13:49:28;15.80;;;10.17;;
13743;SDS011;6943;52.368;9.966;2023-01-25T13:51:58;12.47;;;9.10;;
13743;SDS011;6943;52.368;9.966;2023-01-25T13:54:25;15.83;;;9.57;;
13743;SDS011;6943;52.368;9.966;2023-01-25T13:57:04;13.80;;;9.33;;
13743;SDS011;6943;52.368;9.966;2023-01-25T13:59:31;14.40;;;9.67;;
13743;SDS011;6943;52.368;9.966;2023-01-25T14:01:56;14.07;;;8.63;;
13743;SDS011;6943;52.368;9.966;2023-01-25T14:04:23;15.63;;;9.10;;
13743;SDS011;6943;52.368;9.966;2023-01-25T14:06:53;14.33;;;9.07;;
13743;SDS011;6943;52.368;9.966;2023-01-25T14:09:21;14.23;;;8.43;;
13743;SDS011;6943;52.368;9.966;2023-01-25T14:11:55;11.13;;;8.37;;
13743;SDS011;6943;52.368;9.966;2023-01-25T14:14:25;12.37;;;8.33;;
13743;SDS011;6943;52.368;9.966;2023-01-25T14:19:42;15.80;;;9.30;;
13743;SDS011;6943;52.368;9.966;2023-01-25T14:22:21;14.07;;;9.97;;
13743;SDS011;6943;52.368;9.966;2023-01-25T14:32:58;13.03;;;9.20;;
13743;SDS011;6943;52.368;9.966;2023-01-25T14:35:31;14.00;;;9.60;;
13743;SDS011;6943;52.368;9.966;2023-01-25T14:37:59;13.90;;;9.30;;
13743;SDS011;6943;52.368;9.966;2023-01-25T14:40:25;14.30;;;9.87;;
13743;SDS011;6943;52.368;9.966;2023-01-25T14:42:52;13.47;;;9.37;;
13743;SDS011;6943;52.368;9.966;2023-01-25T14:45:19;14.63;;;9.87;;
13743;SDS011;6943;52.368;9.966;2023-01-25T14:47:47;13.23;;;9.07;;
13743;SDS011;6943;52.368;9.966;2023-01-25T14:50:30;13.47;;;8.73;;
13743;SDS011;6943;52.368;9.966;2023-01-25T14:52:57;11.80;;;8.73;;
13743;SDS011;6943;52.368;9.966;2023-01-25T14:55:50;12.67;;;8.67;;
13743;SDS011;6943;52.368;9.966;2023-01-25T14:58:20;14.23;;;8.83;;
13743;SDS011;6943;52.368;9.966;2023-01-25T15:00:51;15.07;;;9.63;;
13743;SDS011;6943;52.368;9.966;2023-01-25T15:03:17;14.67;;;9.03;;
13743;SDS011;6943;52.368;9.966;2023-01-25T15:05:43;15.83;;;8.70;;
13743;SDS011;6943;52.368;9.966;2023-01-25T15:10:36;13.23;;;9.90;;
13743;SDS011;6943;52.368;9.966;2023-01-25T15:14:00;15.40;;;8.67;;
13743;SDS011;6943;52.368;9.966;2023-01-25T15:16:32;12.83;;;8.67;;
13743;SDS011;6943;52.368;9.966;2023-01-25T15:18:58;14.00;;;9.20;;
13743;SDS011;6943;52.368;9.966;2023-01-25T15:21:25;13.43;;;8.93;;
13743;SDS011;6943;52.368;9.966;2023-01-25T15:23:52;13.93;;;9.03;;
13743;SDS011;6943;52.368;9.966;2023-01-25T15:26:29;14.13;;;9.23;;
13743;SDS011;6943;52.368;9.966;2023-01-25T15:28:57;16.23;;;10.37;;
13743;SDS011;6943;52.368;9.966;2023-01-25T15:31:30;13.83;;;8.90;;
13743;SDS011;6943;52.368;9.966;2023-01-25T15:33:57;14.33;;;10.63;;
13743;SDS011;6943;52.368;9.966;2023-01-25T15:36:23;12.53;;;9.00;;
13743;SDS011;6943;52.368;9.966;2023-01-25T15:38:49;14.27;;;9.67;;
13743;SDS011;6943;52.368;9.966;2023-01-25T15:41:15;17.80;;;10.17;;
13743;SDS011;6943;52.368;9.966;2023-01-25T15:43:42;13.03;;;9.53;;
13743;SDS011;6943;52.368;9.966;2023-01-25T15:46:21;12.60;;;9.17;;
13743;SDS011;6943;52.368;9.966;2023-01-25T15:48:50;12.30;;;8.93;;
13743;SDS011;6943;52.368;9.966;2023-01-25T15:51:16;12.63;;;8.33;;
13743;SDS011;6943;52.368;9.966;2023-01-25T15:53:42;11.83;;;8.20;;
13743;SDS011;6943;52.368;9.966;2023-01-25T15:56:12;12.70;;;8.20;;
13743;SDS011;6943;52.368;9.966;2023-01-25T15:58:49;12.53;;;8.57;;
13743;SDS011;6943;52.368;9.966;2023-01-25T16:01:16;13.63;;;8.83;;
13743;SDS011;6943;52.368;9.966;2023-01-25T16:03:42;14.20;;;9.20;;
13743;SDS011;6943;52.368;9.966;2023-01-25T16:08:58;11.30;;;8.23;;
13743;SDS011;6943;52.368;9.966;2023-01-25T16:11:24;16.37;;;10.20;;
13743;SDS011;6943;52.368;9.966;2023-01-25T16:13:51;16.03;;;10.73;;
13743;SDS011;6943;52.368;9.966;2023-01-25T16:16:21;15.47;;;10.40;;
13743;SDS011;6943;52.368;9.966;2023-01-25T16:18:47;15.77;;;11.30;;
13743;SDS011;6943;52.368;9.966;2023-01-25T16:21:13;13.83;;;10.07;;
13743;SDS011;6943;52.368;9.966;2023-01-25T16:23:39;13.10;;;9.87;;
13743;SDS011;6943;52.368;9.966;2023-01-25T16:28:51;13.47;;;9.20;;
13743;SDS011;6943;52.368;9.966;2023-01-25T16:31:17;15.70;;;10.53;;
13743;SDS011;6943;52.368;9.966;2023-01-25T16:33:42;14.70;;;9.17;;